Calais, Vermont
Current Conditions -  °F | °C
As of 8:54 PM on Friday 26 Dec 2014 (Local Time) from KMVL Reporting Station
Overcast Overcast  
Wind Chill: 32°   Ceiling: 3500
Heat Index: 37°   Visibility: 10mi
Dew Point: 28°   Wind: 7mph
Humidity: 70%   Direction: 200°SSW
Pressure: 30.11"   Gusts: NA
Location:  44.38°N, 72.49°W
Report Text: KMVL 270154Z AUTO 20006KT 10SM OVC035 03/M02 A3011 RMK AO2 SLP205 T00281022 TSNO
Loading
Personal Weather Stations






























Interactive Weather Map New forecast layout! Learn more

10-Day Weather Forecast

Advertisements
Track Severe Weather on mobile